Time;durP1;ratioP1;P1;durP2;ratioP2;P2;SDS_P1;SDS_P2;PMS_P1;PMS_P2;Temp;Humidity;BMP_temperature;BMP_pressure;BME280_temperature;BME280_humidity;BME280_pressure;Samples;Min_cycle;Max_cycle;Signal;HPM_P1;HPM_P2
2021/03/02 16:45:22;;;;;;;27.00;20.00;;;;;;;12.16;49.53;102929.19;4231282;27;21128;-84
2021/03/02 16:47:24;;;;;;;31.08;21.70;;;;;;;11.96;49.44;102955.38;4214612;28;20048;-84
2021/03/02 16:49:24;;;;;;;30.70;22.98;;;;;;;11.46;50.81;102955.59;4215814;28;20024;-83
2021/03/02 16:51:30;;;;;;;36.00;25.23;;;;;;;11.13;51.50;102943.88;4216377;28;20112;-84
2021/03/02 16:53:35;;;;;;;36.47;26.83;;;;;;;10.84;52.52;102945.28;4212362;28;20397;-84
2021/03/02 16:55:42;;;;;;;34.20;25.33;;;;;;;10.67;52.80;102955.38;4214730;28;20029;-84
2021/03/02 16:58:00;;;;;;;34.30;25.80;;;;;;;10.39;53.36;102955.69;4215534;28;20049;-83
2021/03/02 17:00:05;;;;;;;36.50;24.73;;;;;;;10.21;54.32;102966.81;4217086;28;20036;-84
2021/03/02 17:02:09;;;;;;;41.60;28.90;;;;;;;9.95;54.71;102962.28;4212185;28;20027;-84
2021/03/02 17:04:11;;;;;;;39.55;30.25;;;;;;;9.75;56.08;102960.88;4213124;28;20444;-85
2021/03/02 17:06:13;;;;;;;37.97;28.95;;;;;;;9.72;55.98;102942.91;4213346;28;20030;-84
2021/03/02 17:08:21;;;;;;;37.15;28.15;;;;;;;9.71;55.88;102959.47;4195858;28;20586;-84
2021/03/02 17:10:22;;;;;;;38.83;30.63;;;;;;;9.62;56.05;102955.84;4211425;28;20027;-84
2021/03/02 17:12:22;;;;;;;41.08;30.88;;;;;;;9.63;56.02;102967.66;4210483;28;20510;-84
2021/03/02 17:14:23;;;;;;;33.33;25.98;;;;;;;9.55;55.80;102972.03;4217206;28;20490;-85
2021/03/02 17:16:23;;;;;;;38.28;29.40;;;;;;;9.40;56.27;102962.75;4216103;28;20090;-85
2021/03/02 17:18:24;;;;;;;39.75;26.77;;;;;;;9.33;56.04;102965.28;4212182;28;20040;-85
2021/03/02 17:20:24;;;;;;;39.97;30.45;;;;;;;9.15;56.04;102959.00;4211726;28;20501;-85
2021/03/02 17:22:26;;;;;;;39.63;27.02;;;;;;;9.18;56.38;102972.31;4212624;28;20079;-85
2021/03/02 17:24:26;;;;;;;40.58;29.83;;;;;;;9.16;56.31;102979.81;4210793;28;20036;-86
2021/03/02 17:26:27;;;;;;;35.72;28.10;;;;;;;9.12;56.54;102976.56;4217948;28;20114;-84
2021/03/02 17:28:27;;;;;;;38.00;27.38;;;;;;;8.97;56.58;102968.06;4215018;28;20055;-84
2021/03/02 17:30:28;;;;;;;40.45;30.05;;;;;;;8.68;57.93;102957.44;4207199;28;20036;-85
2021/03/02 17:32:29;;;;;;;39.05;29.63;;;;;;;8.75;57.27;102976.78;4202331;28;20028;-85
2021/03/02 17:34:29;;;;;;;36.63;26.35;;;;;;;8.68;57.11;102977.44;4192648;28;20097;-85
2021/03/02 17:36:30;;;;;;;36.22;28.25;;;;;;;8.52;57.41;102959.00;4200586;28;20032;-84
2021/03/02 17:38:30;;;;;;;41.90;32.08;;;;;;;8.57;57.36;102960.41;4204022;28;20062;-86
2021/03/02 17:40:30;;;;;;;38.15;28.08;;;;;;;8.38;57.26;102945.94;4199750;28;20036;-85
2021/03/02 17:42:31;;;;;;;44.15;33.67;;;;;;;8.51;58.30;102981.88;4199051;28;20032;-86
2021/03/02 17:44:31;;;;;;;40.60;31.60;;;;;;;8.41;57.78;102978.38;4201274;28;20064;-86
2021/03/02 17:46:32;;;;;;;41.58;33.10;;;;;;;8.37;57.88;102976.94;4200950;28;20036;-85
2021/03/02 17:48:33;;;;;;;36.95;29.02;;;;;;;8.36;58.26;102978.84;4184334;28;20037;-85
2021/03/02 17:50:33;;;;;;;42.30;31.45;;;;;;;8.30;59.17;102981.34;4202200;28;20032;-86
2021/03/02 17:52:35;;;;;;;40.55;30.30;;;;;;;8.27;58.69;102987.09;4201424;28;20024;-86
2021/03/02 17:54:37;;;;;;;40.22;29.25;;;;;;;8.24;58.39;102987.41;4197667;28;20106;-86
2021/03/02 17:56:37;;;;;;;43.92;35.40;;;;;;;8.24;58.33;102990.13;4191790;28;20037;-86
2021/03/02 17:58:38;;;;;;;41.45;31.70;;;;;;;8.15;58.78;102978.25;4191741;28;20036;-86
2021/03/02 18:00:38;;;;;;;39.25;28.42;;;;;;;8.19;58.66;102998.78;4192383;28;20025;-86
2021/03/02 18:02:39;;;;;;;37.05;27.80;;;;;;;8.12;58.55;102987.59;4188690;28;20140;-87
2021/03/02 18:04:39;;;;;;;41.40;31.38;;;;;;;8.06;59.09;102990.09;4191922;28;20101;-86
2021/03/02 18:07:12;;;;;;;38.88;28.30;;;;;;;7.98;58.88;102979.97;4192561;28;20403;-86
2021/03/02 18:09:12;;;;;;;37.38;26.42;;;;;;;7.84;58.97;102970.38;4191108;28;20031;-86
2021/03/02 18:11:13;;;;;;;40.72;29.90;;;;;;;7.90;59.47;102993.47;4188886;28;20029;-86
2021/03/02 18:13:13;;;;;;;39.60;29.45;;;;;;;7.75;58.92;102969.41;4191981;28;20029;-85
2021/03/02 18:15:14;;;;;;;38.60;29.23;;;;;;;7.77;58.97;102986.50;4189808;28;20029;-86
2021/03/02 18:17:15;;;;;;;39.00;28.65;;;;;;;7.66;58.99;102989.41;4193002;28;20071;-87
2021/03/02 18:19:15;;;;;;;40.38;28.20;;;;;;;7.62;59.30;103001.63;4191113;28;20102;-86
2021/03/02 18:21:16;;;;;;;39.75;30.38;;;;;;;7.53;59.19;102989.75;4189828;28;20025;-86
2021/03/02 18:23:16;;;;;;;42.80;30.13;;;;;;;7.39;59.50;102988.38;4192274;28;20425;-86
2021/03/02 18:25:16;;;;;;;40.53;30.65;;;;;;;7.41;59.19;102990.94;4192207;28;20024;-86
2021/03/02 18:27:17;;;;;;;;;;;;;;;7.30;59.34;102997.44;4193849;28;20154;-84
2021/03/02 18:29:17;;;;;;;41.60;33.20;;;;;;;7.31;59.31;102996.44;4186866;28;19920;-86
2021/03/02 18:31:17;;;;;;;;;;;;;;;7.24;59.66;102995.31;4191454;28;20037;-84
2021/03/02 18:33:18;;;;;;;46.70;35.27;;;;;;;7.26;59.48;102991.44;4188492;28;20681;-85
2021/03/02 18:35:18;;;;;;;43.58;32.33;;;;;;;7.24;59.73;102987.13;4192863;28;20045;-86
2021/03/02 18:37:18;;;;;;;;;;;;;;;7.14;60.06;102986.28;4191265;28;20028;-84
2021/03/02 18:39:19;;;;;;;33.83;25.60;;;;;;;7.06;59.93;102985.19;4189442;28;20593;-87
2021/03/02 18:41:19;;;;;;;;;;;;;;;6.97;60.06;102990.63;4187586;28;20037;-85
2021/03/02 18:43:20;;;;;;;45.73;33.83;;;;;;;6.90;59.73;102979.47;4190927;28;19921;-88
2021/03/02 18:45:20;;;;;;;46.75;32.17;;;;;;;6.89;60.40;102980.47;4192571;28;20398;-87
2021/03/02 18:47:21;;;;;;;45.25;34.28;;;;;;;6.87;60.32;102986.06;4192089;28;20086;-87
2021/03/02 18:49:21;;;;;;;;;;;;;;;6.86;60.63;102978.03;4190698;28;20032;-84
2021/03/02 18:51:22;;;;;;;43.90;31.33;;;;;;;6.91;60.34;102983.91;4191683;28;19950;-87
2021/03/02 18:53:22;;;;;;;52.17;36.28;;;;;;;6.85;60.92;102974.47;4189664;28;20047;-86
2021/03/02 18:55:23;;;;;;;47.95;36.13;;;;;;;6.87;60.76;102982.47;4191018;28;20260;-87
2021/03/02 18:57:23;;;;;;;41.53;30.90;;;;;;;6.82;60.50;102984.78;4188811;28;20036;-87
2021/03/02 18:59:23;;;;;;;44.17;31.65;;;;;;;6.77;60.49;102987.94;4191486;28;20551;-86
2021/03/02 19:01:24;;;;;;;46.05;32.92;;;;;;;6.69;60.54;102988.66;4190417;28;20036;-84
2021/03/02 19:03:24;;;;;;;47.83;34.28;;;;;;;6.64;60.37;102985.50;4188186;28;20041;-87
2021/03/02 19:05:25;;;;;;;;;;;;;;;6.50;60.69;102980.50;4191522;28;20121;-85
2021/03/02 19:07:25;;;;;;;79.80;65.30;;;;;;;6.54;60.90;102993.66;4190194;28;19924;-85
2021/03/02 19:09:25;;;;;;;85.65;68.53;;;;;;;6.51;60.78;102985.78;4188598;28;20024;-84
2021/03/02 19:11:29;;;;;;;;;;;;;;;6.45;60.89;102980.06;4170485;28;20064;-84
2021/03/02 19:13:29;;;;;;;82.75;65.70;;;;;;;6.50;60.67;102985.94;4185482;28;20298;-87
2021/03/02 19:15:30;;;;;;;78.60;65.93;;;;;;;6.42;60.68;102988.53;4189302;28;20029;-87
2021/03/02 19:17:32;;;;;;;65.40;51.58;;;;;;;6.30;60.73;102980.47;4191402;28;20087;-85
2021/03/02 19:19:32;;;;;;;61.53;47.88;;;;;;;6.25;60.72;102977.28;4186837;28;20383;-87
2021/03/02 19:21:33;;;;;;;65.55;56.08;;;;;;;6.22;60.75;102985.75;4189268;28;20035;-87
2021/03/02 19:23:34;;;;;;;;;;;;;;;6.14;61.28;102991.03;4187294;28;20044;-84
2021/03/02 19:25:34;;;;;;;58.75;46.72;;;;;;;6.20;61.18;102982.31;4200495;28;19936;-86
2021/03/02 19:27:34;;;;;;;;;;;;;;;6.03;61.39;102989.28;4185926;28;20036;-84
2021/03/02 19:29:35;;;;;;;57.50;44.00;;;;;;;6.07;61.33;102981.69;4187095;28;19931;-85
2021/03/02 19:31:35;;;;;;;;;;;;;;;6.02;60.98;102983.00;4189768;28;20021;-84
2021/03/02 19:33:35;;;;;;;57.10;40.17;;;;;;;5.96;61.59;102972.69;4191082;28;19925;-85
2021/03/02 19:35:36;;;;;;;;;;;;;;;5.84;61.54;102968.38;4189383;28;20032;-83
2021/03/02 19:37:36;;;;;;;51.77;36.20;;;;;;;5.76;62.19;102976.34;4190509;28;20023;-85
2021/03/02 19:39:37;;;;;;;;;;;;;;;5.71;62.32;102973.19;4184150;28;20037;-84
2021/03/02 19:41:37;;;;;;;55.83;38.57;;;;;;;5.67;62.68;102981.59;4189591;28;19952;-85
2021/03/02 19:43:38;;;;;;;;;;;;;;;5.61;62.52;102973.16;4191973;28;20024;-84
2021/03/02 19:45:38;;;;;;;50.93;38.17;;;;;;;5.62;62.69;102981.16;4191170;28;19920;-86
2021/03/02 19:47:39;;;;;;;;;;;;;;;5.55;62.55;102977.25;4191576;28;20728;-84
2021/03/02 19:49:41;;;;;;;53.10;40.42;;;;;;;5.64;63.08;102976.44;4192694;28;19931;-86
2021/03/02 19:51:42;;;;;;;51.47;37.42;;;;;;;5.78;62.33;102980.63;4191036;28;20171;-86
2021/03/02 19:53:42;;;;;;;50.80;37.60;;;;;;;5.80;63.04;102977.78;4192293;28;20517;-85
2021/03/02 19:55:42;;;;;;;49.75;38.15;;;;;;;5.87;62.79;102976.25;4187569;28;20036;-86
2021/03/02 19:57:43;;;;;;;;;;;;;;;5.89;63.23;102976.09;4188246;28;20450;-84
2021/03/02 19:59:43;;;;;;;43.00;33.43;;;;;;;5.92;63.77;102978.53;4186499;28;19924;-86
2021/03/02 20:01:43;;;;;;;;;;;;;;;5.95;63.79;102979.13;4189384;28;20440;-83
2021/03/02 20:03:44;;;;;;;51.23;38.20;;;;;;;5.96;63.01;102977.25;4187422;28;19969;-86
2021/03/02 20:05:44;;;;;;;;;;;;;;;5.95;63.40;102972.81;4191221;28;20372;-84
2021/03/02 20:07:44;;;;;;;48.90;35.50;;;;;;;5.84;63.33;102958.34;4184971;28;19924;-84
2021/03/02 20:09:45;;;;;;;46.90;33.15;;;;;;;5.96;63.24;102974.53;4186647;28;20036;-87
2021/03/02 20:11:45;;;;;;;;;;;;;;;5.90;63.07;102972.38;4187969;28;20032;-84
2021/03/02 20:13:46;;;;;;;49.80;37.93;;;;;;;5.86;63.70;102977.22;4187741;28;19967;-86
2021/03/02 20:15:46;;;;;;;;;;;;;;;5.85;63.45;102967.34;4190648;28;20063;-83
2021/03/02 20:17:46;;;;;;;48.80;37.60;;;;;;;5.81;63.51;102972.22;4191246;28;20375;-86
2021/03/02 20:19:49;;;;;;;45.05;35.28;;;;;;;5.75;63.64;102961.03;4189252;28;20557;-86
2021/03/02 20:21:49;;;;;;;51.15;37.30;;;;;;;5.84;64.10;102965.66;4186819;28;20040;-86
2021/03/02 20:23:50;;;;;;;54.72;37.70;;;;;;;5.85;64.04;102965.50;4189728;28;20032;-86
2021/03/02 20:25:51;;;;;;;;;;;;;;;5.82;64.40;102954.91;4188925;28;20060;-84
2021/03/02 20:27:52;;;;;;;40.97;31.50;;;;;;;5.56;63.90;102911.09;4178873;28;19993;-87
2021/03/02 20:29:53;;;;;;;45.97;35.10;;;;;;;5.80;63.55;102964.19;4184901;28;20051;-86
2021/03/02 20:31:53;;;;;;;;;;;;;;;5.68;63.61;102953.44;4187480;28;20031;-84
2021/03/02 20:34:02;;;;;;;41.63;32.07;;;;;;;5.56;63.44;102953.66;4186989;28;20393;-87
2021/03/02 20:36:06;;;;;;;49.33;37.88;;;;;;;5.58;63.56;102963.41;4185606;28;20040;-85
2021/03/02 20:38:06;;;;;;;44.97;34.53;;;;;;;5.53;63.51;102957.53;4187860;28;20499;-85
2021/03/02 20:40:07;;;;;;;45.50;36.58;;;;;;;5.53;63.33;102959.38;4183180;28;20037;-86
2021/03/02 20:42:08;;;;;;;46.70;40.00;;;;;;;5.45;63.52;102962.78;4188069;28;20044;-87
2021/03/02 20:44:08;;;;;;;47.13;36.92;;;;;;;5.35;63.39;102961.91;4183296;28;20057;-85
2021/03/02 20:46:09;;;;;;;;;;;;;;;5.35;63.85;102973.59;4188908;28;20434;-85
2021/03/02 20:48:09;;;;;;;48.13;36.50;;;;;;;5.35;63.36;102970.03;4186275;28;19929;-86
2021/03/02 20:50:10;;;;;;;;;;;;;;;5.30;63.86;102973.16;4190730;28;20489;-85
2021/03/02 20:52:10;;;;;;;47.80;39.38;;;;;;;5.20;63.75;102962.22;4187751;28;20527;-86
2021/03/02 20:54:12;;;;;;;;;;;;;;;5.20;63.65;102974.94;4184023;28;20079;-84
2021/03/02 20:56:13;;;;;;;;;;;;;;;5.12;63.69;102972.91;4186478;28;19981;-85
2021/03/02 20:58:16;;;;;;;46.40;34.13;;;;;;;4.95;63.48;102948.09;4188019;28;19994;-86
2021/03/02 21:00:17;;;;;;;49.83;38.13;;;;;;;5.06;63.52;102973.44;4172208;28;20037;-85
2021/03/02 21:02:18;;;;;;;47.40;35.80;;;;;;;4.99;63.50;102967.69;4185341;28;20462;-87
2021/03/02 21:04:18;;;;;;;44.90;32.30;;;;;;;4.92;63.61;102974.63;4184670;28;20037;-84
2021/03/02 21:06:18;;;;;;;48.40;34.83;;;;;;;4.90;63.52;102966.63;4186468;28;20041;-88
2021/03/02 21:08:19;;;;;;;;;;;;;;;4.82;63.37;102961.03;4185380;28;20064;-84
2021/03/02 21:10:19;;;;;;;46.00;31.80;;;;;;;4.69;63.38;102965.78;4185694;28;19929;-88
2021/03/02 21:12:20;;;;;;;;;;;;;;;4.60;63.46;102973.72;4188073;28;20082;-86
2021/03/02 21:14:20;;;;;;;46.60;35.07;;;;;;;4.58;63.69;102970.25;4187781;28;19971;-86
2021/03/02 21:16:21;;;;;;;;;;;;;;;4.55;63.62;102970.50;4187850;28;20041;-86
2021/03/02 21:18:21;;;;;;;45.13;38.30;;;;;;;4.48;63.55;102965.72;4180691;28;19925;-86
2021/03/02 21:20:22;;;;;;;;;;;;;;;4.45;63.91;102975.00;4186852;28;20482;-84
2021/03/02 21:22:45;;;;;;;33.33;28.17;;;;;;;4.41;63.90;102951.81;4189283;28;20569;-85
2021/03/02 21:24:45;;;;;;;49.30;40.95;;;;;;;4.42;63.81;102961.69;4202316;28;20043;-86
2021/03/02 21:26:46;;;;;;;46.67;35.50;;;;;;;4.40;63.66;102961.81;4188673;28;20477;-85
2021/03/02 21:28:46;;;;;;;;;;;;;;;4.33;63.90;102963.31;4183576;28;20033;-85
2021/03/02 21:30:47;;;;;;;45.53;34.80;;;;;;;4.31;63.76;102948.16;4189839;28;19930;-85
2021/03/02 21:32:47;;;;;;;;;;;;;;;4.34;63.66;102958.72;4190988;28;20033;-85
2021/03/02 21:34:51;;;;;;;35.50;30.07;;;;;;;4.25;64.12;102953.09;4183563;28;20488;-85
2021/03/02 21:36:52;;;;;;;41.38;31.50;;;;;;;4.29;63.88;102963.69;4190712;28;20029;-85
2021/03/02 21:38:52;;;;;;;47.75;42.63;;;;;;;4.26;63.95;102959.38;4192383;28;20059;-85
2021/03/02 21:40:54;;;;;;;;;;;;;;;4.20;63.72;102959.88;4173320;28;20041;-85
2021/03/02 21:42:54;;;;;;;44.30;38.17;;;;;;;4.20;63.79;102957.19;4204356;28;19963;-85
2021/03/02 21:44:55;;;;;;;;;;;;;;;4.21;64.41;102957.03;4183962;28;20064;-84
2021/03/02 21:46:55;;;;;;;51.03;40.20;;;;;;;4.13;64.00;102946.00;4190333;28;19924;-87
2021/03/02 21:48:55;;;;;;;;;;;;;;;4.23;64.41;102960.50;4191819;28;20032;-84
2021/03/02 21:50:56;;;;;;;51.87;46.30;;;;;;;4.29;64.14;102959.13;4192302;28;20038;-84
2021/03/02 21:52:56;;;;;;;;;;;;;;;4.23;63.98;102955.09;4188629;28;20721;-86
2021/03/02 21:54:56;;;;;;;50.90;39.77;;;;;;;4.18;64.04;102957.31;4190167;28;19925;-85
2021/03/02 21:56:57;;;;;;;;;;;;;;;4.14;63.96;102955.88;4187706;28;20036;-85
2021/03/02 21:58:57;;;;;;;46.90;41.57;;;;;;;4.09;64.27;102958.06;4188832;28;19920;-85
2021/03/02 22:00:58;;;;;;;;;;;;;;;4.04;64.88;102954.91;4192974;28;20063;-85
2021/03/02 22:02:58;;;;;;;45.58;36.35;;;;;;;4.03;64.38;102953.16;4187556;28;19920;-85
2021/03/02 22:04:59;;;;;;;;;;;;;;;4.02;64.49;102963.16;4185745;28;20041;-85
2021/03/02 22:07:04;;;;;;;47.63;41.50;;;;;;;4.04;64.39;102960.31;4187873;28;19920;-85
2021/03/02 22:09:05;;;;;;;46.10;38.25;;;;;;;4.03;64.25;102955.88;4191071;28;20029;-84
2021/03/02 22:11:05;;;;;;;;;;;;;;;4.00;64.16;102956.13;4188170;28;20082;-85
2021/03/02 22:13:06;;;;;;;49.37;44.07;;;;;;;3.90;63.67;102942.50;4189729;28;19924;-85
2021/03/02 22:15:06;;;;;;;;;;;;;;;3.86;64.10;102947.31;4188718;28;20494;-85
2021/03/02 22:17:07;;;;;;;38.23;30.40;;;;;;;3.82;64.02;102950.41;4188340;28;20386;-84
2021/03/02 22:19:07;;;;;;;;;;;;;;;3.81;64.16;102952.22;4188353;28;20029;-85
2021/03/02 22:21:07;;;;;;;44.53;34.00;;;;;;;3.73;64.13;102933.03;4189621;28;20550;-85
2021/03/02 22:23:07;;;;;;;;;;;;;;;3.85;63.89;102942.88;4190796;28;20101;-86
2021/03/02 22:25:08;;;;;;;48.00;37.30;;;;;;;3.87;63.88;102950.88;4188051;28;19959;-85
2021/03/02 22:27:08;;;;;;;;;;;;;;;3.80;64.01;102947.81;4193108;28;20048;-85
2021/03/02 22:29:09;;;;;;;45.27;35.67;;;;;;;3.62;64.09;102916.81;4190570;28;19924;-85
2021/03/02 22:31:09;;;;;;;;;;;;;;;3.73;63.97;102957.41;4191217;28;20427;-85
2021/03/02 22:33:10;;;;;;;43.67;32.53;;;;;;;3.70;63.95;102949.53;4191564;28;19928;-85
2021/03/02 22:35:10;;;;;;;;;;;;;;;3.66;63.72;102946.22;4192000;28;20406;-85
2021/03/02 22:37:20;;;;;;;32.33;21.43;;;;;;;3.63;64.08;102951.00;4192586;28;19922;-85
2021/03/02 22:41:56;;;;;;;46.72;36.72;;;;;;;3.64;63.98;102947.34;4176685;28;20485;-85
2021/03/02 22:43:57;;;;;;;50.55;39.72;;;;;;;3.59;63.95;102946.84;4181514;28;20689;-85
2021/03/02 22:45:57;;;;;;;;;;;;;;;3.53;64.15;102940.94;4188734;28;20037;-84
2021/03/02 22:47:59;;;;;;;46.13;40.93;;;;;;;3.57;64.24;102941.56;4187554;28;19925;-86
2021/03/02 22:50:00;;;;;;;42.88;31.83;;;;;;;3.35;64.02;102915.34;4190068;28;20515;-85
2021/03/02 22:52:00;;;;;;;;;;;;;;;3.51;63.94;102936.66;4174150;28;20036;-84
2021/03/02 22:54:00;;;;;;;40.50;36.00;;;;;;;3.50;63.98;102934.91;4180886;28;19920;-86
2021/03/02 22:56:01;;;;;;;;;;;;;;;3.47;63.96;102936.00;4190222;28;20475;-84
2021/03/02 22:58:03;;;;;;;49.10;43.80;;;;;;;3.51;64.10;102931.22;4186509;28;19924;-85
2021/03/02 23:00:09;;;;;;;45.13;39.35;;;;;;;3.56;63.57;102931.72;4189816;28;20123;-86
2021/03/02 23:02:09;;;;;;;47.85;39.58;;;;;;;3.48;63.68;102931.47;4183034;28;20032;-85
2021/03/02 23:04:12;;;;;;;;;;;;;;;3.43;63.67;102918.31;4191177;28;20032;-84
2021/03/02 23:06:12;;;;;;;45.45;40.42;;;;;;;3.38;63.66;102914.25;4187132;28;20591;-86
2021/03/02 23:08:13;;;;;;;;;;;;;;;3.35;63.69;102924.34;4190812;28;20086;-84
2021/03/02 23:10:13;;;;;;;50.40;44.23;;;;;;;3.34;63.89;102928.03;4188684;28;19924;-86
2021/03/02 23:12:13;;;;;;;;;;;;;;;3.33;63.75;102925.44;4187921;28;20028;-83
2021/03/02 23:14:14;;;;;;;50.80;45.47;;;;;;;3.29;63.87;102924.84;4189239;28;19943;-86
2021/03/02 23:16:14;;;;;;;;;;;;;;;3.26;63.75;102921.50;4188995;28;20437;-84
2021/03/02 23:18:15;;;;;;;44.93;35.73;;;;;;;3.17;64.15;102923.97;4189705;28;19947;-85
2021/03/02 23:20:15;;;;;;;;;;;;;;;3.20;63.95;102911.16;4190839;28;20394;-83
2021/03/02 23:22:17;;;;;;;46.17;36.00;;;;;;;3.15;63.95;102907.00;4189951;28;19963;-86
2021/03/02 23:24:17;;;;;;;44.42;33.58;;;;;;;3.24;63.99;102918.06;4189164;28;20047;-86
2021/03/02 23:26:18;;;;;;;;;;;;;;;3.19;63.99;102910.31;4190463;28;20452;-84
2021/03/02 23:28:18;;;;;;;43.07;38.03;;;;;;;3.19;63.99;102907.63;4191989;28;19932;-86
2021/03/02 23:30:19;;;;;;;;;;;;;;;3.15;63.99;102909.72;4188199;28;20445;-83
2021/03/02 23:32:19;;;;;;;46.50;41.50;;;;;;;3.14;63.77;102902.56;4183455;28;19920;-86
2021/03/02 23:34:20;;;;;;;;;;;;;;;3.13;63.92;102902.69;4189980;28;20041;-86
2021/03/02 23:36:21;;;;;;;45.93;39.30;;;;;;;3.10;63.90;102902.94;4187303;28;19932;-86
2021/03/02 23:38:22;;;;;;;41.47;36.95;;;;;;;3.12;63.90;102899.13;4189678;28;20117;-86
2021/03/02 23:40:22;;;;;;;;;;;;;;;3.09;63.82;102901.19;4170622;28;20033;-84
2021/03/02 23:42:28;;;;;;;42.03;37.93;;;;;;;3.12;63.83;102904.53;4191027;28;19924;-85
2021/03/02 23:44:31;;;;;;;40.63;34.92;;;;;;;2.77;63.76;102847.84;4170288;28;20099;-85
2021/03/02 23:46:32;;;;;;;43.10;35.17;;;;;;;2.94;63.85;102890.63;4187683;28;20036;-87
2021/03/02 23:48:32;;;;;;;;;;;;;;;2.98;63.92;102908.34;4186895;28;20707;-86
2021/03/02 23:50:33;;;;;;;43.93;39.37;;;;;;;3.03;63.91;102910.69;4187565;28;19968;-85
2021/03/02 23:52:33;;;;;;;;;;;;;;;2.97;63.96;102917.44;4186963;28;20033;-85
2021/03/02 23:54:33;;;;;;;31.87;28.07;;;;;;;2.86;63.77;102892.22;4183280;28;20308;-85
2021/03/02 23:56:36;;;;;;;;;;;;;;;2.94;63.74;102908.72;4187893;28;20047;-85
2021/03/02 23:58:37;;;;;;;41.65;37.10;;;;;;;2.89;63.74;102903.66;4190980;28;19920;-85
